• Join FlightAware (Why Join?)
  • Login
  • US Flag 
11:59PM EDT


 

Airport Tracker/Info


-or-


 

Live Flight TrackerFlight Track Log ✈ SWR2806 ✈ 17-May-2012 ✈ LSZH / ZRH - LSGG / GVA

Flight Track Log - Related Links

Times and Time Zones

All times are in EDT time to prevent confusion due to time zone crossing. See the SWR2806 flight status page for this flight to view local times or setup timezone preferences in your user account.

Time Position Orientation Groundspeed Altitude Reporting Facility
EDT Latitude Longitude Course Direction KTS MPH feet Rate Location/Type
07:52AM 47.3598 8.3319 234° Southwest  Level Estimated
07:53AM 47.3183 8.2464 234° Southwest  Level Estimated
07:54AM 47.2767 8.1610 234° Southwest  Level Estimated
07:55AM 47.2351 8.0757 234° Southwest  Level Estimated
07:56AM 47.1847 7.9729 234° Southwest  Level Estimated
07:57AM 47.1342 7.8702 234° Southwest  Level Estimated
07:58AM 47.0836 7.7678 234° Southwest  Level Estimated
07:59AM 47.0330 7.6655 234° Southwest  Level Estimated
08:00AM 46.9822 7.5635 234° Southwest  Level Estimated
08:01AM 46.9313 7.4616 234° Southwest  Level Estimated
08:02AM 46.8804 7.3599 234° Southwest  Level Estimated
08:03AM 46.8293 7.2585 234° Southwest  Level Estimated
08:04AM 46.7782 7.1572 234° Southwest  Level Estimated
08:05AM 46.7270 7.0561 233° Southwest  Level Estimated
08:06AM 46.6757 6.9552 233° Southwest  Level Estimated
08:07AM 46.6243 6.8545 233° Southwest  Level Estimated
08:08AM 46.5728 6.7539 233° Southwest  Level Estimated
08:09AM 46.5213 6.6536 233° Southwest  Level Estimated
08:10AM 46.4696 6.5535 233° Southwest  Level Estimated
08:11AM 46.4218 6.4612 233° Southwest  Level Estimated
08:12AM 46.3740 6.3691 233° Southwest  Level Estimated
08:13AM 46.3261 6.2771 233° Southwest  Level Estimated
08:14AM 46.2781 6.1853 233° Southwest  Level Estimated
08:15AM 46.2301 6.0937 53° Northeast  Level Estimated
08:16AM 46.2781 6.1853 233° Southwest  Level Estimated
08:17AM 46.2301 6.0937 53° Northeast  Level Estimated
08:18AM 46.2781 6.1853 233° Southwest  Level Estimated
08:19AM 46.2301 6.0937 53° Northeast  Level Estimated
08:20AM 46.2781 6.1853 233° Southwest  Level Estimated
08:21AM 46.2301 6.0937 53° Northeast  Level Estimated
08:22AM 46.2781 6.1853 233° Southwest  Level Estimated
08:23AM 46.2261 6.0861 53° Northeast  Level Estimated
08:24AM 46.2781 6.1853 233° Southwest  Level Estimated
08:25AM 46.2261 6.0861 53° Northeast  Level Estimated
08:26AM 46.2781 6.1853 233° Southwest  Level Estimated
08:27AM 46.2261 6.0861 53° Northeast  Level Estimated
08:28AM 46.2781 6.1853 233° Southwest  Level Estimated
08:29AM 46.2261 6.0861 233° Southwest  Level Estimated